createdAt,value
2019-04-06T00:00:55.325Z,9.62
2019-04-06T00:01:55.305Z,9.73
2019-04-06T00:02:55.285Z,9.77
2019-04-06T00:03:55.268Z,9.67
2019-04-06T00:04:55.257Z,9.77
2019-04-06T00:05:55.228Z,9.73
2019-04-06T00:06:55.211Z,9.70
2019-04-06T00:07:55.188Z,9.75
2019-04-06T00:08:55.167Z,9.69
2019-04-06T00:09:55.161Z,9.80
2019-04-06T00:10:55.338Z,9.87
2019-04-06T00:11:55.109Z,9.75
2019-04-06T00:12:55.087Z,9.80
2019-04-06T00:13:55.085Z,9.75
2019-04-06T00:14:55.049Z,9.69
2019-04-06T00:15:55.030Z,9.78
2019-04-06T00:16:55.010Z,9.72
2019-04-06T00:17:54.988Z,9.70
2019-04-06T00:18:54.975Z,9.62
2019-04-06T00:19:54.950Z,9.62
2019-04-06T00:20:54.930Z,9.60
2019-04-06T00:21:54.916Z,9.66
2019-04-06T00:22:54.899Z,9.66
2019-04-06T00:23:54.872Z,9.67
2019-04-06T00:24:54.857Z,9.60
2019-04-06T00:25:54.834Z,9.62
2019-04-06T00:26:54.811Z,9.77
2019-04-06T00:27:54.790Z,9.77
2019-04-06T00:28:54.772Z,9.78
2019-04-06T00:29:54.755Z,9.77
2019-04-06T00:30:54.733Z,9.77
2019-04-06T00:31:54.713Z,9.81
2019-04-06T00:32:54.691Z,9.80
2019-04-06T00:33:54.682Z,9.84
2019-04-06T00:34:54.673Z,9.78
2019-04-06T00:35:54.638Z,9.77
2019-04-06T00:36:54.622Z,9.72
2019-04-06T00:37:54.600Z,9.70
2019-04-06T00:38:54.576Z,9.72
2019-04-06T00:39:54.559Z,9.75
2019-04-06T00:40:54.538Z,9.75
2019-04-06T00:41:54.527Z,9.78
2019-04-06T00:42:54.506Z,9.78
2019-04-06T00:43:54.486Z,9.87
2019-04-06T00:44:54.459Z,9.91
2019-04-06T00:45:54.438Z,9.84
2019-04-06T00:46:54.421Z,9.91
2019-04-06T00:47:54.402Z,9.90
2019-04-06T00:48:54.376Z,9.90
2019-04-06T00:49:54.361Z,9.90
2019-04-06T00:50:54.339Z,9.94
2019-04-06T00:51:54.319Z,9.93
2019-04-06T00:52:54.298Z,9.96
2019-04-06T00:53:54.279Z,9.88
2019-04-06T00:54:54.259Z,9.94
2019-04-06T00:55:55.914Z,9.88
2019-04-06T00:56:54.218Z,9.87
2019-04-06T00:57:54.198Z,9.88
2019-04-06T00:58:54.184Z,9.93
2019-04-06T00:59:54.163Z,9.93
2019-04-06T01:00:54.147Z,9.88
2019-04-06T01:01:54.159Z,9.91
2019-04-06T01:02:54.101Z,9.88
2019-04-06T01:03:54.081Z,9.96
2019-04-06T01:04:54.064Z,9.91
2019-04-06T01:05:54.044Z,9.85
2019-04-06T01:06:54.023Z,9.80
2019-04-06T01:07:54.002Z,9.85
2019-04-06T01:08:53.983Z,9.85
2019-04-06T01:09:53.979Z,9.83
2019-04-06T01:10:53.951Z,9.88
2019-04-06T01:11:53.925Z,9.88
2019-04-06T01:12:53.903Z,9.90
2019-04-06T01:13:53.885Z,9.91
2019-04-06T01:14:53.870Z,9.85
2019-04-06T01:15:53.853Z,9.91
2019-04-06T01:16:53.957Z,9.90
2019-04-06T01:17:53.815Z,9.90
2019-04-06T01:18:53.785Z,9.99
2019-04-06T01:19:53.768Z,9.94
2019-04-06T01:20:53.747Z,9.88
2019-04-06T01:21:53.731Z,9.93
2019-04-06T01:22:53.828Z,9.96
2019-04-06T01:23:53.686Z,9.85
2019-04-06T01:24:53.668Z,9.88
2019-04-06T01:25:53.650Z,9.91
2019-04-06T01:26:53.628Z,9.88
2019-04-06T01:27:53.610Z,9.90
2019-04-06T01:28:53.589Z,9.93
2019-04-06T01:29:53.575Z,9.88
2019-04-06T01:30:53.552Z,9.93
2019-04-06T01:31:53.536Z,9.83
2019-04-06T01:32:53.513Z,9.90
2019-04-06T01:33:53.492Z,9.93
2019-04-06T01:34:53.470Z,9.88
2019-04-06T01:35:53.452Z,9.85
2019-04-06T01:36:53.460Z,9.87
2019-04-06T01:37:53.413Z,9.87
2019-04-06T01:38:53.391Z,9.84
2019-04-06T01:39:53.376Z,9.85
2019-04-06T01:40:53.476Z,9.90
2019-04-06T01:41:53.332Z,9.84
2019-04-06T01:42:53.314Z,9.90
2019-04-06T01:43:53.297Z,9.93
2019-04-06T01:44:53.274Z,9.85
2019-04-06T01:45:53.307Z,9.90
2019-04-06T01:46:53.234Z,9.96
2019-04-06T01:47:53.217Z,9.96
2019-04-06T01:48:53.194Z,9.91
2019-04-06T01:49:53.197Z,9.87
2019-04-06T01:50:53.158Z,9.91
2019-04-06T01:51:53.137Z,9.99
2019-04-06T01:52:53.116Z,9.96
2019-04-06T01:53:53.096Z,9.88
2019-04-06T01:54:53.083Z,9.90
2019-04-06T01:55:53.058Z,9.94
2019-04-06T01:56:53.036Z,9.87
2019-04-06T01:57:53.018Z,9.94
2019-04-06T01:58:53.000Z,9.94
2019-04-06T01:59:52.977Z,9.90
2019-04-06T02:00:52.956Z,9.90
2019-04-06T02:01:52.943Z,9.93
2019-04-06T02:02:52.917Z,9.90
2019-04-06T02:03:52.898Z,9.98
2019-04-06T02:04:52.881Z,9.96
2019-04-06T02:05:52.862Z,9.87
2019-04-06T02:06:52.838Z,9.88
2019-04-06T02:07:52.821Z,9.84
2019-04-06T02:08:52.799Z,9.80
2019-04-06T02:09:52.778Z,9.84
2019-04-06T02:10:52.764Z,9.75
2019-04-06T02:11:52.843Z,9.80
2019-04-06T02:12:52.719Z,9.75
2019-04-06T02:13:52.701Z,9.78
2019-04-06T02:14:52.686Z,9.81
2019-04-06T02:15:52.660Z,9.77
2019-04-06T02:16:52.644Z,9.81
2019-04-06T02:17:52.624Z,9.73
2019-04-06T02:18:52.600Z,9.77
2019-04-06T02:19:52.584Z,9.78
2019-04-06T02:20:52.561Z,9.69
2019-04-06T02:21:52.541Z,9.83
2019-04-06T02:22:52.522Z,9.87
2019-04-06T02:23:52.501Z,9.87
2019-04-06T02:24:52.479Z,9.90
2019-04-06T02:25:52.461Z,9.91
2019-04-06T02:26:52.440Z,9.93
2019-04-06T02:27:52.487Z,9.98
2019-04-06T02:28:52.507Z,9.96
2019-04-06T02:29:52.393Z,9.96
2019-04-06T02:30:52.363Z,9.99
2019-04-06T02:31:52.345Z,9.96
2019-04-06T02:32:52.338Z,9.98
2019-04-06T02:33:52.321Z,9.90
2019-04-06T02:34:52.283Z,9.90
2019-04-06T02:35:52.265Z,9.85
2019-04-06T02:36:52.253Z,9.91
2019-04-06T02:37:52.224Z,9.85
2019-04-06T02:38:52.242Z,9.93
2019-04-06T02:39:52.197Z,9.88
2019-04-06T02:40:52.255Z,9.93
2019-04-06T02:41:52.146Z,9.93
2019-04-06T02:42:52.128Z,9.94
2019-04-06T02:43:52.107Z,9.87
2019-04-06T02:44:52.092Z,9.90
2019-04-06T02:45:52.066Z,9.94
2019-04-06T02:46:52.088Z,9.88
2019-04-06T02:47:52.027Z,9.94
2019-04-06T02:48:52.007Z,9.91
2019-04-06T02:49:52.203Z,9.94
2019-04-06T02:50:51.971Z,9.88
2019-04-06T02:51:51.949Z,9.98
2019-04-06T02:52:51.947Z,9.91
2019-04-06T02:53:51.913Z,9.91
2019-04-06T02:54:51.975Z,9.90
2019-04-06T02:55:51.877Z,9.90
2019-04-06T02:56:51.855Z,9.90
2019-04-06T02:57:51.834Z,9.98
2019-04-06T02:58:51.813Z,9.94
2019-04-06T02:59:51.792Z,9.91
2019-04-06T03:00:51.780Z,9.98
2019-04-06T03:01:51.755Z,9.98
2019-04-06T03:02:51.734Z,10.02
2019-04-06T03:03:51.712Z,9.90
2019-04-06T03:04:51.698Z,9.90
2019-04-06T03:05:51.672Z,9.91
2019-04-06T03:06:51.662Z,9.88
2019-04-06T03:07:51.810Z,9.87
2019-04-06T03:08:51.614Z,9.90
2019-04-06T03:09:51.595Z,9.88
2019-04-06T03:10:51.592Z,9.90
2019-04-06T03:11:51.555Z,9.88
2019-04-06T03:12:51.538Z,9.84
2019-04-06T03:13:51.535Z,9.87
2019-04-06T03:14:51.576Z,9.88
2019-04-06T03:15:51.475Z,9.87
2019-04-06T03:16:51.588Z,9.88
2019-04-06T03:17:51.439Z,9.93
2019-04-06T03:18:51.415Z,9.90
2019-04-06T03:19:51.395Z,9.88
2019-04-06T03:20:51.376Z,9.88
2019-04-06T03:21:51.388Z,9.90
2019-04-06T03:22:51.337Z,9.90
2019-04-06T03:23:52.401Z,9.87
2019-04-06T03:24:51.342Z,9.87
2019-04-06T03:25:51.280Z,9.88
2019-04-06T03:27:01.051Z,9.91
2019-04-06T03:27:51.236Z,9.87
2019-04-06T03:28:51.237Z,9.88
2019-04-06T03:29:58.198Z,9.94
2019-04-06T03:30:51.186Z,9.90
2019-04-06T03:31:51.285Z,9.91
2019-04-06T03:32:51.244Z,9.83
2019-04-06T03:33:51.125Z,9.87
2019-04-06T03:34:51.233Z,9.83
2019-04-06T03:35:51.889Z,9.69
2019-04-06T03:36:51.064Z,9.83
2019-04-06T03:37:51.043Z,9.80
2019-04-06T03:38:51.022Z,9.72
2019-04-06T03:39:51.007Z,9.72
2019-04-06T03:40:50.988Z,9.69
2019-04-06T03:41:50.964Z,9.69
2019-04-06T03:42:51.091Z,9.67
2019-04-06T03:43:50.932Z,9.77
2019-04-06T03:44:50.909Z,9.77
2019-04-06T03:45:50.918Z,9.75
2019-04-06T03:46:50.866Z,9.81
2019-04-06T03:47:50.849Z,9.83
2019-04-06T03:48:50.823Z,9.78
2019-04-06T03:49:50.811Z,9.84
2019-04-06T03:50:50.837Z,9.83
2019-04-06T03:51:50.771Z,9.83
2019-04-06T03:52:50.749Z,9.84
2019-04-06T03:53:50.896Z,9.83
2019-04-06T03:54:50.710Z,9.83
2019-04-06T03:55:50.687Z,9.80
2019-04-06T03:56:50.842Z,9.88
2019-04-06T03:57:50.647Z,9.90
2019-04-06T03:58:52.268Z,9.87
2019-04-06T03:59:50.605Z,9.84
2019-04-06T04:00:50.622Z,9.90
2019-04-06T04:01:50.567Z,9.91
2019-04-06T04:02:50.546Z,9.90
2019-04-06T04:03:50.526Z,9.87
2019-04-06T04:04:50.761Z,9.90
2019-04-06T04:05:50.540Z,9.87
2019-04-06T04:06:50.467Z,9.93
2019-04-06T04:07:50.456Z,9.96
2019-04-06T04:08:50.431Z,10.01
2019-04-06T04:09:50.523Z,9.94
2019-04-06T04:10:50.390Z,9.99
2019-04-06T04:11:50.370Z,9.91
2019-04-06T04:12:50.350Z,9.93
2019-04-06T04:13:50.359Z,9.98
2019-04-06T04:14:50.501Z,9.94
2019-04-06T04:15:50.294Z,9.98
2019-04-06T04:16:50.281Z,10.01
2019-04-06T04:17:50.430Z,10.01
2019-04-06T04:18:50.229Z,10.01
2019-04-06T04:19:50.211Z,10.01
2019-04-06T04:20:50.202Z,9.94
2019-04-06T04:21:50.260Z,9.99
2019-04-06T04:22:50.158Z,9.98
2019-04-06T04:23:50.133Z,9.98
2019-04-06T04:24:50.113Z,10.01
2019-04-06T04:25:50.092Z,10.03
2019-04-06T04:26:50.081Z,10.03
2019-04-06T04:27:50.054Z,10.08
2019-04-06T04:28:50.043Z,10.03
2019-04-06T04:29:50.237Z,10.06
2019-04-06T04:30:49.994Z,10.02
2019-04-06T04:31:50.203Z,10.05
2019-04-06T04:32:50.209Z,10.03
2019-04-06T04:33:49.939Z,9.99
2019-04-06T04:34:49.917Z,10.02
2019-04-06T04:35:49.896Z,9.98
2019-04-06T04:36:50.124Z,9.96
2019-04-06T04:37:49.868Z,9.98
2019-04-06T04:38:49.839Z,9.96
2019-04-06T04:39:50.023Z,9.94
2019-04-06T04:40:49.808Z,9.99
2019-04-06T04:41:49.815Z,9.99
2019-04-06T04:42:49.762Z,9.98
2019-04-06T04:43:49.742Z,10.02
2019-04-06T04:44:49.719Z,9.99
2019-04-06T04:45:49.969Z,9.98
2019-04-06T04:46:49.682Z,9.98
2019-04-06T04:47:50.321Z,9.98
2019-04-06T04:48:49.642Z,10.08
2019-04-06T04:49:49.644Z,9.96
2019-04-06T04:50:49.603Z,10.01
2019-04-06T04:51:49.666Z,10.01
2019-04-06T04:52:49.767Z,10.05
2019-04-06T04:53:49.543Z,9.98
2019-04-06T04:54:49.524Z,10.09
2019-04-06T04:55:49.506Z,9.99
2019-04-06T04:56:49.485Z,10.02
2019-04-06T04:57:49.467Z,10.01
2019-04-06T04:58:49.454Z,10.02
2019-04-06T04:59:49.426Z,9.99
2019-04-06T05:00:49.408Z,9.93
2019-04-06T05:01:49.389Z,9.93
2019-04-06T05:02:49.370Z,9.96
2019-04-06T05:03:49.348Z,9.93
2019-04-06T05:04:49.326Z,9.96
2019-04-06T05:05:49.311Z,9.99
2019-04-06T05:06:49.285Z,9.96
2019-04-06T05:07:49.413Z,9.93
2019-04-06T05:08:49.250Z,9.96
2019-04-06T05:09:49.231Z,9.99
2019-04-06T05:10:49.209Z,9.96
2019-04-06T05:11:49.457Z,9.94
2019-04-06T05:12:49.169Z,10.03
2019-04-06T05:13:49.149Z,9.90
2019-04-06T05:14:49.127Z,9.93
2019-04-06T05:15:49.109Z,9.91
2019-04-06T05:16:49.095Z,9.88
2019-04-06T05:17:49.076Z,9.94
2019-04-06T05:18:49.228Z,9.88
2019-04-06T05:19:49.144Z,9.90
2019-04-06T05:20:49.106Z,9.93
2019-04-06T05:21:48.999Z,10.01
2019-04-06T05:22:48.974Z,9.94
2019-04-06T05:23:48.953Z,9.93
2019-04-06T05:24:48.935Z,9.87
2019-04-06T05:25:48.915Z,9.90
2019-04-06T05:26:48.893Z,9.96
2019-04-06T05:27:52.543Z,9.90
2019-04-06T05:28:48.852Z,9.81
2019-04-06T05:29:48.831Z,9.93
2019-04-06T05:30:48.815Z,9.88
2019-04-06T05:31:48.792Z,9.87
2019-04-06T05:32:48.789Z,9.98
2019-04-06T05:33:48.757Z,9.91
2019-04-06T05:34:48.735Z,9.91
2019-04-06T05:35:48.718Z,9.87
2019-04-06T05:36:48.700Z,9.98
2019-04-06T05:37:48.674Z,9.96
2019-04-06T05:38:48.656Z,9.88
2019-04-06T05:39:48.637Z,9.88
2019-04-06T05:40:48.699Z,9.81
2019-04-06T05:41:50.454Z,9.85
2019-04-06T05:42:48.579Z,9.90
2019-04-06T05:43:48.753Z,9.90
2019-04-06T05:44:48.547Z,9.94
2019-04-06T05:45:48.521Z,9.99
2019-04-06T05:46:48.623Z,10.03
2019-04-06T05:47:48.483Z,9.91
2019-04-06T05:48:48.480Z,9.93
2019-04-06T05:49:48.441Z,9.90
2019-04-06T05:50:48.429Z,10.03
2019-04-06T05:51:48.418Z,9.98
2019-04-06T05:52:48.386Z,10.08
2019-04-06T05:53:48.362Z,9.94
2019-04-06T05:54:48.344Z,10.03
2019-04-06T05:55:48.326Z,10.02
2019-04-06T05:56:48.319Z,9.98
2019-04-06T05:57:48.284Z,10.06
2019-04-06T05:58:48.265Z,10.09
2019-04-06T05:59:48.263Z,10.08
2019-04-06T06:00:48.226Z,10.14
2019-04-06T06:01:49.308Z,10.12
2019-04-06T06:02:48.198Z,10.16
2019-04-06T06:03:48.164Z,10.14
2019-04-06T06:04:48.233Z,10.17
2019-04-06T06:05:48.124Z,10.12
2019-04-06T06:06:48.105Z,10.18
2019-04-06T06:07:48.083Z,10.14
2019-04-06T06:08:48.066Z,10.20
2019-04-06T06:09:48.234Z,10.20
2019-04-06T06:10:48.033Z,10.21
2019-04-06T06:11:48.199Z,10.21
2019-04-06T06:12:47.988Z,10.26
2019-04-06T06:13:47.974Z,10.17
2019-04-06T06:14:47.958Z,10.24
2019-04-06T06:15:47.939Z,10.31
2019-04-06T06:16:47.909Z,10.36
2019-04-06T06:17:47.891Z,10.34
2019-04-06T06:18:47.876Z,10.42
2019-04-06T06:19:47.857Z,10.42
2019-04-06T06:20:48.580Z,10.36
2019-04-06T06:21:47.813Z,10.36
2019-04-06T06:22:47.913Z,10.34
2019-04-06T06:23:47.773Z,10.36
2019-04-06T06:24:47.754Z,10.41
2019-04-06T06:25:47.737Z,10.38
2019-04-06T06:26:47.717Z,10.34
2019-04-06T06:27:47.701Z,10.39
2019-04-06T06:28:47.694Z,10.36
2019-04-06T06:29:47.727Z,10.31
2019-04-06T06:30:47.636Z,10.38
2019-04-06T06:31:47.617Z,10.36
2019-04-06T06:32:47.596Z,10.43
2019-04-06T06:33:47.769Z,10.52
2019-04-06T06:34:47.560Z,10.48
2019-04-06T06:35:47.541Z,10.45
2019-04-06T06:36:47.666Z,10.48
2019-04-06T06:37:47.503Z,10.52
2019-04-06T06:38:47.483Z,10.55
2019-04-06T06:39:47.470Z,10.54
2019-04-06T06:40:47.447Z,10.64
2019-04-06T06:41:47.427Z,10.64
2019-04-06T06:42:47.409Z,10.73
2019-04-06T06:43:47.392Z,10.79
2019-04-06T06:44:47.369Z,10.86
2019-04-06T06:45:47.345Z,10.79
2019-04-06T06:46:47.329Z,10.79
2019-04-06T06:47:47.309Z,10.78
2019-04-06T06:48:47.412Z,10.78
2019-04-06T06:49:47.284Z,10.80
2019-04-06T06:50:47.410Z,10.86
2019-04-06T06:51:47.232Z,10.90
2019-04-06T06:52:47.214Z,10.87
2019-04-06T06:53:47.194Z,10.90
2019-04-06T06:54:47.180Z,10.97
2019-04-06T06:55:47.156Z,10.95
2019-04-06T06:56:47.137Z,11.01
2019-04-06T06:57:47.120Z,10.97
2019-04-06T06:58:47.101Z,11.05
2019-04-06T06:59:47.082Z,10.98
2019-04-06T07:00:47.064Z,10.98
2019-04-06T07:01:47.041Z,11.03
2019-04-06T07:02:47.025Z,11.05
2019-04-06T07:03:47.005Z,11.04
2019-04-06T07:04:47.095Z,10.98
2019-04-06T07:05:46.969Z,11.04
2019-04-06T07:06:47.025Z,11.15
2019-04-06T07:07:46.930Z,11.09
2019-04-06T07:08:46.941Z,11.04
2019-04-06T07:09:46.889Z,11.01
2019-04-06T07:10:47.026Z,11.11
2019-04-06T07:11:46.995Z,11.25
2019-04-06T07:12:46.882Z,11.25
2019-04-06T07:13:46.829Z,11.38
2019-04-06T07:14:46.800Z,11.43
2019-04-06T07:15:46.779Z,11.51
2019-04-06T07:16:46.780Z,11.51
2019-04-06T07:17:46.755Z,11.61
2019-04-06T07:18:46.730Z,11.73
2019-04-06T07:19:46.709Z,11.64
2019-04-06T07:20:46.685Z,11.58
2019-04-06T07:21:46.670Z,11.61
2019-04-06T07:22:46.657Z,11.46
2019-04-06T07:23:46.633Z,11.45
2019-04-06T07:24:46.614Z,11.46
2019-04-06T07:25:56.832Z,11.51
2019-04-06T07:26:46.642Z,11.40
2019-04-06T07:27:46.556Z,11.52
2019-04-06T07:28:46.539Z,11.37
2019-04-06T07:29:46.680Z,11.49
2019-04-06T07:30:46.713Z,11.46
2019-04-06T07:31:46.482Z,11.48
2019-04-06T07:32:46.466Z,11.41
2019-04-06T07:33:46.517Z,11.56
2019-04-06T07:34:46.428Z,11.54
2019-04-06T07:35:46.409Z,11.48
2019-04-06T07:36:46.395Z,11.54
2019-04-06T07:37:46.569Z,11.55
2019-04-06T07:38:46.360Z,11.58
2019-04-06T07:39:46.334Z,11.52
2019-04-06T07:40:46.316Z,11.48
2019-04-06T07:41:46.306Z,11.51
2019-04-06T07:42:46.280Z,11.56
2019-04-06T07:43:46.265Z,11.55
2019-04-06T07:44:46.245Z,11.58
2019-04-06T07:45:46.232Z,11.59
2019-04-06T07:46:46.230Z,11.58
2019-04-06T07:47:46.191Z,11.56
2019-04-06T07:48:46.170Z,11.66
2019-04-06T07:49:46.666Z,11.59
2019-04-06T07:50:46.136Z,11.64
2019-04-06T07:51:46.114Z,11.54
2019-04-06T07:52:46.097Z,11.51
2019-04-06T07:53:46.076Z,11.55
2019-04-06T07:54:46.073Z,11.54
2019-04-06T07:55:46.094Z,11.59
2019-04-06T07:56:46.020Z,11.52
2019-04-06T07:57:46.004Z,11.66
2019-04-06T07:58:49.415Z,11.55
2019-04-06T07:59:45.974Z,11.59
2019-04-06T08:00:45.979Z,11.62
2019-04-06T08:01:48.310Z,11.62
2019-04-06T08:02:45.981Z,11.67
2019-04-06T08:03:46.060Z,11.62
2019-04-06T08:04:45.874Z,11.69
2019-04-06T08:05:45.853Z,11.69
2019-04-06T08:06:46.047Z,11.88
2019-04-06T08:07:45.817Z,11.93
2019-04-06T08:08:45.806Z,11.95
2019-04-06T08:09:45.788Z,11.97
2019-04-06T08:10:45.762Z,11.93
2019-04-06T08:11:45.745Z,11.93
2019-04-06T08:12:45.724Z,11.87
2019-04-06T08:13:45.706Z,11.88
2019-04-06T08:14:45.824Z,11.88
2019-04-06T08:15:45.680Z,11.97
2019-04-06T08:16:45.652Z,12.03
2019-04-06T08:17:45.632Z,12.17
2019-04-06T08:18:45.615Z,12.15
2019-04-06T08:19:45.601Z,12.18
2019-04-06T08:20:45.578Z,12.17
2019-04-06T08:21:45.750Z,12.18
2019-04-06T08:22:45.683Z,12.22
2019-04-06T08:23:45.534Z,12.23
2019-04-06T08:24:45.510Z,12.30
2019-04-06T08:25:45.488Z,12.29
2019-04-06T08:26:46.279Z,12.36
2019-04-06T08:27:45.452Z,12.44
2019-04-06T08:28:45.433Z,12.47
2019-04-06T08:29:45.531Z,12.65
2019-04-06T08:30:46.815Z,12.58
2019-04-06T08:31:45.391Z,12.50
2019-04-06T08:32:45.438Z,12.47
2019-04-06T08:33:45.348Z,12.61
2019-04-06T08:34:45.328Z,12.65
2019-04-06T08:35:45.312Z,12.69
2019-04-06T08:36:45.293Z,12.68
2019-04-06T08:37:45.272Z,12.65
2019-04-06T08:38:45.259Z,12.87
2019-04-06T08:39:45.554Z,12.91
2019-04-06T08:40:45.413Z,12.96
2019-04-06T08:41:45.430Z,12.98
2019-04-06T08:42:45.325Z,12.96
2019-04-06T08:43:45.169Z,12.95
2019-04-06T08:44:45.155Z,13.02
2019-04-06T08:45:45.132Z,13.06
2019-04-06T08:46:45.115Z,13.01
2019-04-06T08:47:45.104Z,13.06
2019-04-06T08:48:45.088Z,12.95
2019-04-06T08:49:45.066Z,12.95
2019-04-06T08:50:45.048Z,13.01
2019-04-06T08:51:45.365Z,12.99
2019-04-06T08:52:45.013Z,13.14
2019-04-06T08:53:45.201Z,13.16
2019-04-06T08:54:44.988Z,13.27
2019-04-06T08:55:44.962Z,13.45
2019-04-06T08:56:44.946Z,13.58
2019-04-06T08:57:44.942Z,13.65
2019-04-06T08:58:44.914Z,13.75
2019-04-06T08:59:44.894Z,13.78
2019-04-06T09:00:44.878Z,13.86
2019-04-06T09:01:44.862Z,13.98
2019-04-06T09:02:44.850Z,14.15
2019-04-06T09:03:44.833Z,14.38
2019-04-06T09:04:44.816Z,14.46
2019-04-06T09:05:44.800Z,14.53
2019-04-06T09:06:44.943Z,14.58
2019-04-06T09:07:44.766Z,14.55
2019-04-06T09:08:44.747Z,14.56
2019-04-06T09:09:44.743Z,14.67
2019-04-06T09:10:44.786Z,14.83
2019-04-06T09:11:44.709Z,15.25
2019-04-06T09:12:44.686Z,15.87
2019-04-06T09:13:44.737Z,16.33
2019-04-06T09:14:44.675Z,16.94
2019-04-06T09:15:44.646Z,17.25
2019-04-06T09:16:44.628Z,17.69
2019-04-06T09:17:44.614Z,17.50
2019-04-06T09:18:44.604Z,17.91
2019-04-06T09:19:44.592Z,17.20
2019-04-06T09:20:44.574Z,16.57
2019-04-06T09:21:44.561Z,16.34
2019-04-06T09:22:44.716Z,16.08
2019-04-06T09:23:44.764Z,15.99
2019-04-06T09:24:44.533Z,15.98
2019-04-06T09:25:44.765Z,15.65
2019-04-06T09:26:44.693Z,15.68
2019-04-06T09:27:44.480Z,15.54
2019-04-06T09:28:44.541Z,15.65
2019-04-06T09:29:44.464Z,15.88
2019-04-06T09:30:44.443Z,16.25
2019-04-06T09:31:44.434Z,16.09
2019-04-06T09:32:44.421Z,15.91
2019-04-06T09:33:44.405Z,15.88
2019-04-06T09:34:44.405Z,15.72
2019-04-06T09:35:44.371Z,15.80
2019-04-06T09:36:44.359Z,15.81
2019-04-06T09:37:44.347Z,15.91
2019-04-06T09:38:44.332Z,16.00
2019-04-06T09:39:44.323Z,16.02
2019-04-06T09:40:44.313Z,16.17
2019-04-06T09:41:44.292Z,16.59
2019-04-06T09:42:44.311Z,17.49
2019-04-06T09:43:44.476Z,18.31
2019-04-06T09:44:44.514Z,18.94
2019-04-06T09:45:44.240Z,19.31
2019-04-06T09:46:44.418Z,18.74
2019-04-06T09:47:44.212Z,18.78
2019-04-06T09:48:44.203Z,19.47
2019-04-06T09:49:44.194Z,19.82
2019-04-06T09:50:44.179Z,20.14
2019-04-06T09:51:44.164Z,20.34
2019-04-06T09:52:44.237Z,20.17
2019-04-06T09:53:44.139Z,20.36
2019-04-06T09:54:44.138Z,20.90
2019-04-06T09:55:44.117Z,21.47
2019-04-06T09:56:44.105Z,21.23
2019-04-06T09:57:44.098Z,21.14
2019-04-06T09:58:44.195Z,21.18
2019-04-06T09:59:44.394Z,21.47
2019-04-06T10:00:44.266Z,21.67
2019-04-06T10:01:44.068Z,21.75
2019-04-06T10:02:44.042Z,21.91
2019-04-06T10:03:44.183Z,21.45
2019-04-06T10:04:44.020Z,21.53
2019-04-06T10:05:44.287Z,21.32
2019-04-06T10:06:44.007Z,21.01
2019-04-06T10:07:43.985Z,20.46
2019-04-06T10:08:43.985Z,19.94
2019-04-06T10:09:43.973Z,20.22
2019-04-06T10:10:43.963Z,20.37
2019-04-06T10:11:43.947Z,20.80
2019-04-06T10:12:43.931Z,21.29
2019-04-06T10:13:44.152Z,21.48
2019-04-06T10:14:43.941Z,21.77
2019-04-06T10:15:43.930Z,21.65
2019-04-06T10:16:43.888Z,21.77
2019-04-06T10:17:43.881Z,21.55
2019-04-06T10:18:43.874Z,21.34
2019-04-06T10:19:43.857Z,21.55
2019-04-06T10:20:44.041Z,21.90
2019-04-06T10:21:43.855Z,21.97
2019-04-06T10:22:43.925Z,21.90
2019-04-06T10:23:43.903Z,21.47
2019-04-06T10:24:43.935Z,20.90
2019-04-06T10:25:44.045Z,20.75
2019-04-06T10:26:43.792Z,20.86
2019-04-06T10:27:43.784Z,20.80
2019-04-06T10:28:43.776Z,20.74
2019-04-06T10:29:48.803Z,20.75
2019-04-06T10:30:43.764Z,20.93
2019-04-06T10:31:43.736Z,20.98
2019-04-06T10:32:43.745Z,20.90
2019-04-06T10:33:43.963Z,20.70
2019-04-06T10:34:43.714Z,20.89
2019-04-06T10:35:43.697Z,21.25
2019-04-06T10:36:43.845Z,21.63
2019-04-06T10:37:43.880Z,21.60
2019-04-06T10:38:43.671Z,21.78
2019-04-06T10:39:43.655Z,21.90
2019-04-06T10:40:43.649Z,21.04
2019-04-06T10:41:43.639Z,21.32
2019-04-06T10:42:43.629Z,21.58
2019-04-06T10:43:43.616Z,21.93
2019-04-06T10:44:43.615Z,22.28
2019-04-06T10:45:43.600Z,22.27
2019-04-06T10:46:43.589Z,22.62
2019-04-06T10:47:43.575Z,22.67
2019-04-06T10:48:43.575Z,22.67
2019-04-06T10:49:43.644Z,22.33
2019-04-06T10:50:43.547Z,22.48
2019-04-06T10:51:43.537Z,22.56
2019-04-06T10:52:43.594Z,22.49
2019-04-06T10:53:43.520Z,21.78
2019-04-06T10:54:43.514Z,21.37
2019-04-06T10:55:43.747Z,21.05
2019-04-06T10:56:43.490Z,21.05
2019-04-06T10:57:43.477Z,20.89
2019-04-06T10:58:43.681Z,21.13
2019-04-06T10:59:43.458Z,21.35
2019-04-06T11:00:43.488Z,21.77
2019-04-06T11:01:43.435Z,21.97
2019-04-06T11:02:43.458Z,22.30
2019-04-06T11:03:43.423Z,22.51
2019-04-06T11:04:43.413Z,21.53
2019-04-06T11:05:43.461Z,20.97
2019-04-06T11:06:43.384Z,20.46
2019-04-06T11:07:43.377Z,20.02
2019-04-06T11:08:43.369Z,19.67
2019-04-06T11:09:43.355Z,19.45
2019-04-06T11:10:43.347Z,19.47
2019-04-06T11:11:43.467Z,19.34
2019-04-06T11:12:43.542Z,19.42
2019-04-06T11:13:43.329Z,19.52
2019-04-06T11:14:43.409Z,19.59
2019-04-06T11:15:43.299Z,19.79
2019-04-06T11:16:43.286Z,19.42
2019-04-06T11:17:43.274Z,19.39
2019-04-06T11:18:43.261Z,19.41
2019-04-06T11:19:43.258Z,19.30
2019-04-06T11:20:43.238Z,19.50
2019-04-06T11:21:43.226Z,19.64
2019-04-06T11:22:43.587Z,19.78
2019-04-06T11:23:43.206Z,19.67
2019-04-06T11:24:43.196Z,19.45
2019-04-06T11:25:43.505Z,19.22
2019-04-06T11:26:43.279Z,18.98
2019-04-06T11:27:43.161Z,18.94
2019-04-06T11:28:43.148Z,18.68
2019-04-06T11:29:43.139Z,18.48
2019-04-06T11:30:43.129Z,18.42
2019-04-06T11:31:43.140Z,18.41
2019-04-06T11:32:43.099Z,18.39
2019-04-06T11:33:43.220Z,18.45
2019-04-06T11:34:43.084Z,18.20
2019-04-06T11:35:43.354Z,18.26
2019-04-06T11:36:43.088Z,18.13
2019-04-06T11:37:43.450Z,18.30
2019-04-06T11:38:43.030Z,18.21
2019-04-06T11:39:43.018Z,18.06
2019-04-06T11:40:43.017Z,17.72
2019-04-06T11:41:42.991Z,17.86
2019-04-06T11:42:42.978Z,17.91
2019-04-06T11:43:42.962Z,18.13
2019-04-06T11:44:42.959Z,18.20
2019-04-06T11:45:42.940Z,18.20
2019-04-06T11:46:42.929Z,18.41
2019-04-06T11:47:42.913Z,18.71
2019-04-06T11:48:45.242Z,18.79
2019-04-06T11:49:43.165Z,19.09
2019-04-06T11:50:42.882Z,19.16
2019-04-06T11:51:42.875Z,19.35
2019-04-06T11:52:42.860Z,19.34
2019-04-06T11:53:42.845Z,19.41
2019-04-06T11:54:42.978Z,19.45
2019-04-06T11:55:44.607Z,19.26
2019-04-06T11:56:42.802Z,18.79
2019-04-06T11:57:43.035Z,18.82
2019-04-06T11:58:42.806Z,18.54
2019-04-06T11:59:42.858Z,18.61
2019-04-06T12:00:42.755Z,18.30
2019-04-06T12:01:42.756Z,18.42
2019-04-06T12:02:43.095Z,18.60
2019-04-06T12:03:42.975Z,18.91
2019-04-06T12:04:42.708Z,18.93
2019-04-06T12:05:42.694Z,19.00
2019-04-06T12:06:42.682Z,19.23
2019-04-06T12:07:42.679Z,19.22
2019-04-06T12:08:42.799Z,19.27
2019-04-06T12:09:42.670Z,19.52
2019-04-06T12:10:42.644Z,19.79
2019-04-06T12:11:42.634Z,20.05
2019-04-06T12:12:42.735Z,20.12
2019-04-06T12:13:42.609Z,20.36
2019-04-06T12:14:42.639Z,20.65
2019-04-06T12:15:42.587Z,20.73
2019-04-06T12:16:42.566Z,20.82
2019-04-06T12:17:42.577Z,20.90
2019-04-06T12:18:42.696Z,21.20
2019-04-06T12:19:42.530Z,21.08
2019-04-06T12:20:42.598Z,20.74
2019-04-06T12:21:43.025Z,20.37
2019-04-06T12:22:42.501Z,20.17
2019-04-06T12:23:42.699Z,19.87
2019-04-06T12:24:42.484Z,20.09
2019-04-06T12:25:42.470Z,20.15
2019-04-06T12:26:42.456Z,20.29
2019-04-06T12:27:42.445Z,20.22
2019-04-06T12:28:42.431Z,20.56
2019-04-06T12:29:42.421Z,20.77
2019-04-06T12:30:42.497Z,21.04
2019-04-06T12:31:42.399Z,20.92
2019-04-06T12:32:42.431Z,21.00
2019-04-06T12:33:42.375Z,21.19
2019-04-06T12:34:42.679Z,20.97
2019-04-06T12:35:42.361Z,20.71
2019-04-06T12:36:42.404Z,20.70
2019-04-06T12:37:42.334Z,20.70
2019-04-06T12:38:42.624Z,20.74
2019-04-06T12:39:52.737Z,20.79
2019-04-06T12:40:42.333Z,20.68
2019-04-06T12:41:42.599Z,20.68
2019-04-06T12:42:42.292Z,20.73
2019-04-06T12:43:42.276Z,21.05
2019-04-06T12:44:42.258Z,21.34
2019-04-06T12:45:42.249Z,21.45
2019-04-06T12:46:42.233Z,21.40
2019-04-06T12:47:42.251Z,21.19
2019-04-06T12:48:42.233Z,21.40
2019-04-06T12:49:42.201Z,21.43
2019-04-06T12:50:42.193Z,20.23
2019-04-06T12:51:42.178Z,20.17
2019-04-06T12:52:42.462Z,19.93
2019-04-06T12:53:42.161Z,20.00
2019-04-06T12:54:42.149Z,19.86
2019-04-06T12:55:42.135Z,20.15
2019-04-06T12:56:42.124Z,20.58
2019-04-06T12:57:42.114Z,20.77
2019-04-06T12:58:42.101Z,20.92
2019-04-06T12:59:42.429Z,21.10
2019-04-06T13:00:50.788Z,21.40
2019-04-06T13:01:42.069Z,20.77
2019-04-06T13:02:42.068Z,20.73
2019-04-06T13:03:42.049Z,20.65